Terminal Aerodrome Forecast
Issued by NWS Wichita, KS

Home | Current Version | Previous Version | Text Only | Print | Product List | Glossary On
Versions: 1 2 3 4 5 6 7 8 9 10 11 12 13 14 15 16 17 18 19 20 21
991
FTUS43 KICT 180520
TAFICT
TAF
KICT 180520Z 1806/1906 13005KT P6SM SCT012 BKN150
      TEMPO 1806/1810 3SM BR OVC008
     FM181000 13007KT 2SM BR OVC005
      TEMPO 1810/1814 4SM TSRA SCT005 OVC015CB
     FM181400 18007KT P6SM OVC013=

USA.gov is the U.S. government's official web portal to all federal, state and local government web resources and services.